sensor_id;sensor_type;location;lat;lon;timestamp;P1;durP1;ratioP1;P2;durP2;ratioP2
24859;SDS011;12936;52.006;4.350;2023-03-01T00:00:47;12.03;;;8.47;;
24859;SDS011;12936;52.006;4.350;2023-03-01T00:03:18;13.27;;;9.30;;
24859;SDS011;12936;52.006;4.350;2023-03-01T00:05:50;13.10;;;9.07;;
24859;SDS011;12936;52.006;4.350;2023-03-01T00:08:23;14.33;;;8.97;;
24859;SDS011;12936;52.006;4.350;2023-03-01T00:11:15;15.17;;;9.03;;
24859;SDS011;12936;52.006;4.350;2023-03-01T00:13:56;10.83;;;8.73;;
24859;SDS011;12936;52.006;4.350;2023-03-01T00:16:30;15.63;;;8.97;;
24859;SDS011;12936;52.006;4.350;2023-03-01T00:19:04;12.00;;;9.13;;
24859;SDS011;12936;52.006;4.350;2023-03-01T00:21:55;10.60;;;8.50;;
24859;SDS011;12936;52.006;4.350;2023-03-01T00:24:23;14.00;;;9.40;;
24859;SDS011;12936;52.006;4.350;2023-03-01T00:27:15;14.97;;;8.87;;
24859;SDS011;12936;52.006;4.350;2023-03-01T00:29:48;24.67;;;9.17;;
24859;SDS011;12936;52.006;4.350;2023-03-01T00:32:17;12.70;;;9.47;;
24859;SDS011;12936;52.006;4.350;2023-03-01T00:34:49;16.43;;;9.93;;
24859;SDS011;12936;52.006;4.350;2023-03-01T00:37:44;13.97;;;9.77;;
24859;SDS011;12936;52.006;4.350;2023-03-01T00:40:37;15.43;;;10.07;;
24859;SDS011;12936;52.006;4.350;2023-03-01T00:43:08;13.67;;;9.60;;
24859;SDS011;12936;52.006;4.350;2023-03-01T00:45:41;15.17;;;9.23;;
24859;SDS011;12936;52.006;4.350;2023-03-01T00:48:24;13.17;;;9.90;;
24859;SDS011;12936;52.006;4.350;2023-03-01T00:50:54;14.80;;;10.00;;
24859;SDS011;12936;52.006;4.350;2023-03-01T00:53:27;19.17;;;10.40;;
24859;SDS011;12936;52.006;4.350;2023-03-01T00:55:56;17.17;;;10.53;;
24859;SDS011;12936;52.006;4.350;2023-03-01T00:58:25;16.43;;;10.27;;
24859;SDS011;12936;52.006;4.350;2023-03-01T01:01:06;15.90;;;10.10;;
24859;SDS011;12936;52.006;4.350;2023-03-01T01:03:52;13.40;;;9.87;;
24859;SDS011;12936;52.006;4.350;2023-03-01T01:06:37;18.30;;;10.67;;
24859;SDS011;12936;52.006;4.350;2023-03-01T01:09:32;17.30;;;10.60;;
24859;SDS011;12936;52.006;4.350;2023-03-01T01:12:08;14.30;;;9.97;;
24859;SDS011;12936;52.006;4.350;2023-03-01T01:15:11;17.57;;;10.83;;
24859;SDS011;12936;52.006;4.350;2023-03-01T01:17:49;16.17;;;10.40;;
24859;SDS011;12936;52.006;4.350;2023-03-01T01:20:40;14.97;;;10.83;;
24859;SDS011;12936;52.006;4.350;2023-03-01T01:23:11;18.07;;;10.97;;
24859;SDS011;12936;52.006;4.350;2023-03-01T01:26:05;18.57;;;11.73;;
24859;SDS011;12936;52.006;4.350;2023-03-01T01:28:57;14.63;;;11.07;;
24859;SDS011;12936;52.006;4.350;2023-03-01T01:31:29;14.17;;;11.13;;
24859;SDS011;12936;52.006;4.350;2023-03-01T01:34:31;17.90;;;11.80;;
24859;SDS011;12936;52.006;4.350;2023-03-01T01:37:09;18.30;;;11.33;;
24859;SDS011;12936;52.006;4.350;2023-03-01T01:39:38;19.33;;;12.33;;
24859;SDS011;12936;52.006;4.350;2023-03-01T01:42:12;17.87;;;12.10;;
24859;SDS011;12936;52.006;4.350;2023-03-01T01:48:03;18.57;;;12.73;;
24859;SDS011;12936;52.006;4.350;2023-03-01T01:50:41;18.40;;;12.50;;
24859;SDS011;12936;52.006;4.350;2023-03-01T01:53:36;18.03;;;12.93;;
24859;SDS011;12936;52.006;4.350;2023-03-01T01:56:15;19.50;;;12.63;;
24859;SDS011;12936;52.006;4.350;2023-03-01T01:58:59;19.17;;;12.70;;
24859;SDS011;12936;52.006;4.350;2023-03-01T02:01:34;18.63;;;12.20;;
24859;SDS011;12936;52.006;4.350;2023-03-01T02:04:03;21.93;;;13.47;;
24859;SDS011;12936;52.006;4.350;2023-03-01T02:06:40;16.73;;;12.87;;
24859;SDS011;12936;52.006;4.350;2023-03-01T02:09:39;19.23;;;13.73;;
24859;SDS011;12936;52.006;4.350;2023-03-01T02:12:10;20.47;;;13.37;;
24859;SDS011;12936;52.006;4.350;2023-03-01T02:14:49;19.70;;;13.57;;
24859;SDS011;12936;52.006;4.350;2023-03-01T02:17:18;22.20;;;14.60;;
24859;SDS011;12936;52.006;4.350;2023-03-01T02:20:01;23.57;;;15.07;;
24859;SDS011;12936;52.006;4.350;2023-03-01T02:22:49;25.43;;;14.50;;
24859;SDS011;12936;52.006;4.350;2023-03-01T02:25:44;23.30;;;15.03;;
24859;SDS011;12936;52.006;4.350;2023-03-01T02:28:31;21.97;;;14.97;;
24859;SDS011;12936;52.006;4.350;2023-03-01T02:31:00;20.70;;;14.53;;
24859;SDS011;12936;52.006;4.350;2023-03-01T02:33:51;21.50;;;14.03;;
24859;SDS011;12936;52.006;4.350;2023-03-01T02:36:57;31.53;;;15.53;;
24859;SDS011;12936;52.006;4.350;2023-03-01T02:39:34;25.10;;;14.80;;
24859;SDS011;12936;52.006;4.350;2023-03-01T02:42:15;23.63;;;15.73;;
24859;SDS011;12936;52.006;4.350;2023-03-01T02:44:53;29.50;;;15.57;;
24859;SDS011;12936;52.006;4.350;2023-03-01T02:47:23;23.53;;;15.90;;
24859;SDS011;12936;52.006;4.350;2023-03-01T02:49:57;21.97;;;14.90;;
24859;SDS011;12936;52.006;4.350;2023-03-01T02:52:33;24.80;;;15.07;;
24859;SDS011;12936;52.006;4.350;2023-03-01T02:55:14;25.73;;;15.63;;
24859;SDS011;12936;52.006;4.350;2023-03-01T02:57:48;20.90;;;15.53;;
24859;SDS011;12936;52.006;4.350;2023-03-01T03:00:22;23.03;;;15.70;;
24859;SDS011;12936;52.006;4.350;2023-03-01T03:02:58;22.87;;;15.43;;
24859;SDS011;12936;52.006;4.350;2023-03-01T03:05:50;25.23;;;15.20;;
24859;SDS011;12936;52.006;4.350;2023-03-01T03:08:40;24.30;;;15.50;;
24859;SDS011;12936;52.006;4.350;2023-03-01T03:11:21;23.03;;;15.40;;
24859;SDS011;12936;52.006;4.350;2023-03-01T03:14:11;23.47;;;15.23;;
24859;SDS011;12936;52.006;4.350;2023-03-01T03:16:47;23.83;;;15.93;;
24859;SDS011;12936;52.006;4.350;2023-03-01T03:19:38;25.30;;;16.03;;
24859;SDS011;12936;52.006;4.350;2023-03-01T03:22:32;25.10;;;15.70;;
24859;SDS011;12936;52.006;4.350;2023-03-01T03:25:47;22.00;;;15.20;;
24859;SDS011;12936;52.006;4.350;2023-03-01T03:28:55;28.23;;;16.63;;
24859;SDS011;12936;52.006;4.350;2023-03-01T03:31:25;25.27;;;15.60;;
24859;SDS011;12936;52.006;4.350;2023-03-01T03:34:00;22.93;;;16.17;;
24859;SDS011;12936;52.006;4.350;2023-03-01T03:36:31;26.17;;;16.53;;
24859;SDS011;12936;52.006;4.350;2023-03-01T03:39:10;25.57;;;17.23;;
24859;SDS011;12936;52.006;4.350;2023-03-01T03:41:40;26.87;;;18.00;;
24859;SDS011;12936;52.006;4.350;2023-03-01T03:44:34;27.80;;;18.40;;
24859;SDS011;12936;52.006;4.350;2023-03-01T03:47:04;27.60;;;18.00;;
24859;SDS011;12936;52.006;4.350;2023-03-01T03:50:18;32.00;;;18.67;;
24859;SDS011;12936;52.006;4.350;2023-03-01T03:52:53;28.33;;;19.00;;
24859;SDS011;12936;52.006;4.350;2023-03-01T03:55:43;29.67;;;18.43;;
24859;SDS011;12936;52.006;4.350;2023-03-01T03:58:19;28.80;;;18.00;;
24859;SDS011;12936;52.006;4.350;2023-03-01T04:00:53;28.40;;;18.70;;
24859;SDS011;12936;52.006;4.350;2023-03-01T04:03:24;29.40;;;19.03;;
24859;SDS011;12936;52.006;4.350;2023-03-01T04:05:59;29.03;;;18.63;;
24859;SDS011;12936;52.006;4.350;2023-03-01T04:08:30;29.10;;;18.93;;
24859;SDS011;12936;52.006;4.350;2023-03-01T04:11:06;29.87;;;20.03;;
24859;SDS011;12936;52.006;4.350;2023-03-01T04:14:15;31.07;;;18.90;;
24859;SDS011;12936;52.006;4.350;2023-03-01T04:17:24;29.63;;;19.53;;
24859;SDS011;12936;52.006;4.350;2023-03-01T04:19:58;30.80;;;19.83;;
24859;SDS011;12936;52.006;4.350;2023-03-01T04:22:35;29.57;;;19.07;;
24859;SDS011;12936;52.006;4.350;2023-03-01T04:25:08;30.23;;;19.33;;
24859;SDS011;12936;52.006;4.350;2023-03-01T04:27:40;31.83;;;19.97;;
24859;SDS011;12936;52.006;4.350;2023-03-01T04:30:10;28.83;;;18.83;;
24859;SDS011;12936;52.006;4.350;2023-03-01T04:32:51;31.70;;;18.53;;
24859;SDS011;12936;52.006;4.350;2023-03-01T04:35:52;29.17;;;19.33;;
24859;SDS011;12936;52.006;4.350;2023-03-01T04:38:26;30.17;;;19.80;;
24859;SDS011;12936;52.006;4.350;2023-03-01T04:41:50;33.53;;;20.53;;
24859;SDS011;12936;52.006;4.350;2023-03-01T04:44:19;34.77;;;20.80;;
24859;SDS011;12936;52.006;4.350;2023-03-01T04:46:49;37.53;;;20.70;;
24859;SDS011;12936;52.006;4.350;2023-03-01T04:49:40;36.63;;;20.63;;
24859;SDS011;12936;52.006;4.350;2023-03-01T04:52:12;32.47;;;21.00;;
24859;SDS011;12936;52.006;4.350;2023-03-01T04:54:55;34.23;;;21.13;;
24859;SDS011;12936;52.006;4.350;2023-03-01T04:57:32;35.53;;;21.10;;
24859;SDS011;12936;52.006;4.350;2023-03-01T05:00:05;33.07;;;20.70;;
24859;SDS011;12936;52.006;4.350;2023-03-01T05:02:48;35.10;;;21.13;;
24859;SDS011;12936;52.006;4.350;2023-03-01T05:05:21;32.17;;;20.73;;
24859;SDS011;12936;52.006;4.350;2023-03-01T05:07:58;30.97;;;21.03;;
24859;SDS011;12936;52.006;4.350;2023-03-01T05:10:34;35.30;;;22.00;;
24859;SDS011;12936;52.006;4.350;2023-03-01T05:13:19;31.27;;;20.03;;
24859;SDS011;12936;52.006;4.350;2023-03-01T05:16:13;33.83;;;21.20;;
24859;SDS011;12936;52.006;4.350;2023-03-01T05:18:44;36.60;;;20.17;;
24859;SDS011;12936;52.006;4.350;2023-03-01T05:21:17;31.63;;;20.03;;
24859;SDS011;12936;52.006;4.350;2023-03-01T05:23:45;33.17;;;20.27;;
24859;SDS011;12936;52.006;4.350;2023-03-01T05:26:35;32.03;;;19.97;;
24859;SDS011;12936;52.006;4.350;2023-03-01T05:29:07;30.20;;;18.97;;
24859;SDS011;12936;52.006;4.350;2023-03-01T05:32:02;30.67;;;18.97;;
24859;SDS011;12936;52.006;4.350;2023-03-01T05:34:32;28.50;;;18.23;;
24859;SDS011;12936;52.006;4.350;2023-03-01T05:37:02;28.90;;;18.93;;
24859;SDS011;12936;52.006;4.350;2023-03-01T05:39:31;27.73;;;18.13;;
24859;SDS011;12936;52.006;4.350;2023-03-01T05:42:01;28.93;;;17.17;;
24859;SDS011;12936;52.006;4.350;2023-03-01T05:44:29;26.10;;;17.67;;
24859;SDS011;12936;52.006;4.350;2023-03-01T05:46:57;28.00;;;17.13;;
24859;SDS011;12936;52.006;4.350;2023-03-01T05:49:25;25.63;;;17.80;;
24859;SDS011;12936;52.006;4.350;2023-03-01T05:51:53;24.40;;;16.23;;
24859;SDS011;12936;52.006;4.350;2023-03-01T05:54:22;23.60;;;16.53;;
24859;SDS011;12936;52.006;4.350;2023-03-01T05:56:53;23.93;;;15.70;;
24859;SDS011;12936;52.006;4.350;2023-03-01T05:59:23;24.90;;;16.07;;
24859;SDS011;12936;52.006;4.350;2023-03-01T06:01:52;24.17;;;16.33;;
24859;SDS011;12936;52.006;4.350;2023-03-01T06:04:22;27.67;;;16.93;;
24859;SDS011;12936;52.006;4.350;2023-03-01T06:06:50;24.63;;;16.53;;
24859;SDS011;12936;52.006;4.350;2023-03-01T06:09:21;23.27;;;16.07;;
24859;SDS011;12936;52.006;4.350;2023-03-01T06:11:49;26.13;;;16.17;;
24859;SDS011;12936;52.006;4.350;2023-03-01T06:14:17;23.90;;;16.23;;
24859;SDS011;12936;52.006;4.350;2023-03-01T06:16:48;27.13;;;17.90;;
24859;SDS011;12936;52.006;4.350;2023-03-01T06:19:16;29.53;;;18.37;;
24859;SDS011;12936;52.006;4.350;2023-03-01T06:21:44;26.73;;;18.07;;
24859;SDS011;12936;52.006;4.350;2023-03-01T06:24:12;26.10;;;17.40;;
24859;SDS011;12936;52.006;4.350;2023-03-01T06:26:40;27.17;;;17.33;;
24859;SDS011;12936;52.006;4.350;2023-03-01T06:29:09;27.10;;;17.93;;
24859;SDS011;12936;52.006;4.350;2023-03-01T06:31:37;26.80;;;17.03;;
24859;SDS011;12936;52.006;4.350;2023-03-01T06:34:06;28.90;;;18.23;;
24859;SDS011;12936;52.006;4.350;2023-03-01T06:36:34;28.57;;;18.17;;
24859;SDS011;12936;52.006;4.350;2023-03-01T06:39:02;25.13;;;16.53;;
24859;SDS011;12936;52.006;4.350;2023-03-01T06:41:31;27.20;;;18.33;;
24859;SDS011;12936;52.006;4.350;2023-03-01T06:44:00;28.47;;;17.90;;
24859;SDS011;12936;52.006;4.350;2023-03-01T06:46:28;29.47;;;16.90;;
24859;SDS011;12936;52.006;4.350;2023-03-01T06:48:57;28.93;;;18.20;;
24859;SDS011;12936;52.006;4.350;2023-03-01T06:51:32;26.00;;;17.80;;
24859;SDS011;12936;52.006;4.350;2023-03-01T06:54:00;29.10;;;17.77;;
24859;SDS011;12936;52.006;4.350;2023-03-01T06:56:28;25.90;;;17.53;;
24859;SDS011;12936;52.006;4.350;2023-03-01T06:58:56;30.20;;;17.97;;
24859;SDS011;12936;52.006;4.350;2023-03-01T07:01:24;27.63;;;16.73;;
24859;SDS011;12936;52.006;4.350;2023-03-01T07:03:53;29.63;;;18.87;;
24859;SDS011;12936;52.006;4.350;2023-03-01T07:06:21;31.43;;;18.20;;
24859;SDS011;12936;52.006;4.350;2023-03-01T07:08:51;27.20;;;17.73;;
24859;SDS011;12936;52.006;4.350;2023-03-01T07:11:19;25.87;;;17.70;;
24859;SDS011;12936;52.006;4.350;2023-03-01T07:13:48;26.57;;;17.87;;
24859;SDS011;12936;52.006;4.350;2023-03-01T07:16:16;28.00;;;17.27;;
24859;SDS011;12936;52.006;4.350;2023-03-01T07:18:44;23.63;;;17.07;;
24859;SDS011;12936;52.006;4.350;2023-03-01T07:21:13;27.53;;;16.23;;
24859;SDS011;12936;52.006;4.350;2023-03-01T07:23:43;25.03;;;16.43;;
24859;SDS011;12936;52.006;4.350;2023-03-01T07:29:05;28.30;;;17.23;;
24859;SDS011;12936;52.006;4.350;2023-03-01T07:31:35;25.93;;;17.23;;
24859;SDS011;12936;52.006;4.350;2023-03-01T07:34:03;26.77;;;17.40;;
24859;SDS011;12936;52.006;4.350;2023-03-01T07:36:31;25.77;;;16.57;;
24859;SDS011;12936;52.006;4.350;2023-03-01T07:38:59;28.53;;;17.27;;
24859;SDS011;12936;52.006;4.350;2023-03-01T07:41:29;27.67;;;17.97;;
24859;SDS011;12936;52.006;4.350;2023-03-01T07:43:59;29.07;;;18.70;;
24859;SDS011;12936;52.006;4.350;2023-03-01T07:46:27;28.07;;;17.03;;
24859;SDS011;12936;52.006;4.350;2023-03-01T07:48:55;32.93;;;18.50;;
24859;SDS011;12936;52.006;4.350;2023-03-01T07:51:24;28.33;;;18.70;;
24859;SDS011;12936;52.006;4.350;2023-03-01T07:53:52;27.07;;;18.60;;
24859;SDS011;12936;52.006;4.350;2023-03-01T07:56:20;29.63;;;18.13;;
24859;SDS011;12936;52.006;4.350;2023-03-01T07:58:48;30.03;;;18.20;;
24859;SDS011;12936;52.006;4.350;2023-03-01T08:01:18;27.43;;;18.47;;
24859;SDS011;12936;52.006;4.350;2023-03-01T08:03:48;27.17;;;18.33;;
24859;SDS011;12936;52.006;4.350;2023-03-01T08:06:16;28.83;;;18.63;;
24859;SDS011;12936;52.006;4.350;2023-03-01T08:08:45;25.87;;;16.50;;
24859;SDS011;12936;52.006;4.350;2023-03-01T08:11:14;29.53;;;18.37;;
24859;SDS011;12936;52.006;4.350;2023-03-01T08:13:42;27.40;;;18.17;;
24859;SDS011;12936;52.006;4.350;2023-03-01T08:16:12;27.23;;;17.80;;
24859;SDS011;12936;52.006;4.350;2023-03-01T08:18:42;25.83;;;16.90;;
24859;SDS011;12936;52.006;4.350;2023-03-01T08:21:11;25.70;;;16.67;;
24859;SDS011;12936;52.006;4.350;2023-03-01T08:23:41;28.43;;;18.60;;
24859;SDS011;12936;52.006;4.350;2023-03-01T08:26:10;25.80;;;16.93;;
24859;SDS011;12936;52.006;4.350;2023-03-01T08:28:40;28.17;;;18.67;;
24859;SDS011;12936;52.006;4.350;2023-03-01T08:31:16;29.37;;;18.07;;
24859;SDS011;12936;52.006;4.350;2023-03-01T08:33:47;23.93;;;17.17;;
24859;SDS011;12936;52.006;4.350;2023-03-01T08:36:18;29.70;;;18.07;;
24859;SDS011;12936;52.006;4.350;2023-03-01T08:38:47;25.37;;;17.50;;
24859;SDS011;12936;52.006;4.350;2023-03-01T08:41:15;26.50;;;17.40;;
24859;SDS011;12936;52.006;4.350;2023-03-01T08:43:44;24.83;;;16.63;;
24859;SDS011;12936;52.006;4.350;2023-03-01T08:46:13;21.57;;;15.33;;
24859;SDS011;12936;52.006;4.350;2023-03-01T08:48:41;23.17;;;15.37;;
24859;SDS011;12936;52.006;4.350;2023-03-01T08:51:11;21.83;;;15.50;;
24859;SDS011;12936;52.006;4.350;2023-03-01T08:53:41;19.70;;;13.60;;
24859;SDS011;12936;52.006;4.350;2023-03-01T08:56:09;19.00;;;13.40;;
24859;SDS011;12936;52.006;4.350;2023-03-01T08:58:38;18.33;;;12.90;;
24859;SDS011;12936;52.006;4.350;2023-03-01T09:01:07;16.33;;;12.37;;
24859;SDS011;12936;52.006;4.350;2023-03-01T09:03:35;16.10;;;11.90;;
24859;SDS011;12936;52.006;4.350;2023-03-01T09:06:04;18.13;;;12.70;;
24859;SDS011;12936;52.006;4.350;2023-03-01T09:08:35;22.50;;;12.80;;
24859;SDS011;12936;52.006;4.350;2023-03-01T09:11:05;17.83;;;12.47;;
24859;SDS011;12936;52.006;4.350;2023-03-01T09:13:35;18.90;;;11.80;;
24859;SDS011;12936;52.006;4.350;2023-03-01T09:16:05;17.43;;;12.13;;
24859;SDS011;12936;52.006;4.350;2023-03-01T09:18:34;13.90;;;10.47;;
24859;SDS011;12936;52.006;4.350;2023-03-01T09:21:03;12.60;;;10.00;;
24859;SDS011;12936;52.006;4.350;2023-03-01T09:23:33;13.87;;;9.67;;
24859;SDS011;12936;52.006;4.350;2023-03-01T09:26:05;15.27;;;9.80;;
24859;SDS011;12936;52.006;4.350;2023-03-01T09:28:35;13.67;;;8.70;;
24859;SDS011;12936;52.006;4.350;2023-03-01T09:31:03;10.10;;;7.40;;
24859;SDS011;12936;52.006;4.350;2023-03-01T09:33:32;12.93;;;7.63;;
24859;SDS011;12936;52.006;4.350;2023-03-01T09:36:02;16.17;;;7.20;;
24859;SDS011;12936;52.006;4.350;2023-03-01T09:38:32;11.87;;;7.47;;
24859;SDS011;12936;52.006;4.350;2023-03-01T09:41:08;8.37;;;5.87;;
24859;SDS011;12936;52.006;4.350;2023-03-01T09:43:40;10.10;;;6.33;;
24859;SDS011;12936;52.006;4.350;2023-03-01T09:46:13;10.37;;;5.70;;
24859;SDS011;12936;52.006;4.350;2023-03-01T09:48:44;7.77;;;5.63;;
24859;SDS011;12936;52.006;4.350;2023-03-01T09:51:18;9.03;;;5.83;;
24859;SDS011;12936;52.006;4.350;2023-03-01T09:53:56;7.73;;;5.40;;
24859;SDS011;12936;52.006;4.350;2023-03-01T09:56:29;8.67;;;5.67;;
24859;SDS011;12936;52.006;4.350;2023-03-01T09:59:04;8.70;;;5.40;;
24859;SDS011;12936;52.006;4.350;2023-03-01T10:01:43;8.37;;;5.93;;
24859;SDS011;12936;52.006;4.350;2023-03-01T10:04:24;6.97;;;5.07;;
24859;SDS011;12936;52.006;4.350;2023-03-01T10:06:58;9.93;;;5.97;;
24859;SDS011;12936;52.006;4.350;2023-03-01T10:09:40;6.37;;;4.40;;
24859;SDS011;12936;52.006;4.350;2023-03-01T10:12:13;7.63;;;6.00;;
24859;SDS011;12936;52.006;4.350;2023-03-01T10:14:46;11.17;;;5.97;;
24859;SDS011;12936;52.006;4.350;2023-03-01T10:17:23;10.17;;;5.53;;
24859;SDS011;12936;52.006;4.350;2023-03-01T10:19:55;8.93;;;5.53;;
24859;SDS011;12936;52.006;4.350;2023-03-01T10:22:33;9.27;;;5.20;;
24859;SDS011;12936;52.006;4.350;2023-03-01T10:25:02;7.83;;;5.10;;
24859;SDS011;12936;52.006;4.350;2023-03-01T10:27:34;8.13;;;5.60;;
24859;SDS011;12936;52.006;4.350;2023-03-01T10:30:10;7.53;;;5.23;;
24859;SDS011;12936;52.006;4.350;2023-03-01T10:32:43;14.93;;;6.23;;
24859;SDS011;12936;52.006;4.350;2023-03-01T10:35:15;9.60;;;5.67;;
24859;SDS011;12936;52.006;4.350;2023-03-01T10:37:57;7.23;;;5.37;;
24859;SDS011;12936;52.006;4.350;2023-03-01T10:40:30;13.67;;;6.97;;
24859;SDS011;12936;52.006;4.350;2023-03-01T10:43:01;11.23;;;6.63;;
24859;SDS011;12936;52.006;4.350;2023-03-01T10:45:33;10.20;;;6.73;;
24859;SDS011;12936;52.006;4.350;2023-03-01T10:48:04;8.77;;;6.17;;
24859;SDS011;12936;52.006;4.350;2023-03-01T10:50:38;11.60;;;6.70;;
24859;SDS011;12936;52.006;4.350;2023-03-01T10:53:20;8.73;;;6.10;;
24859;SDS011;12936;52.006;4.350;2023-03-01T10:55:56;8.23;;;5.33;;
24859;SDS011;12936;52.006;4.350;2023-03-01T10:58:28;10.10;;;6.37;;
24859;SDS011;12936;52.006;4.350;2023-03-01T11:00:58;7.03;;;5.10;;
24859;SDS011;12936;52.006;4.350;2023-03-01T11:03:28;8.10;;;5.90;;
24859;SDS011;12936;52.006;4.350;2023-03-01T11:05:59;8.03;;;5.50;;
24859;SDS011;12936;52.006;4.350;2023-03-01T11:08:31;8.03;;;5.00;;
24859;SDS011;12936;52.006;4.350;2023-03-01T11:11:16;9.80;;;6.87;;
24859;SDS011;12936;52.006;4.350;2023-03-01T11:13:56;9.77;;;6.10;;
24859;SDS011;12936;52.006;4.350;2023-03-01T11:16:26;9.83;;;5.50;;
24859;SDS011;12936;52.006;4.350;2023-03-01T11:18:59;7.80;;;5.43;;
24859;SDS011;12936;52.006;4.350;2023-03-01T11:21:32;10.00;;;5.80;;
24859;SDS011;12936;52.006;4.350;2023-03-01T11:24:02;9.40;;;5.77;;
24859;SDS011;12936;52.006;4.350;2023-03-01T11:26:34;8.03;;;5.23;;
24859;SDS011;12936;52.006;4.350;2023-03-01T11:29:16;7.60;;;4.83;;
24859;SDS011;12936;52.006;4.350;2023-03-01T11:31:55;9.00;;;5.77;;
24859;SDS011;12936;52.006;4.350;2023-03-01T11:34:36;9.83;;;5.73;;
24859;SDS011;12936;52.006;4.350;2023-03-01T11:37:12;9.80;;;6.23;;
24859;SDS011;12936;52.006;4.350;2023-03-01T11:39:53;7.90;;;5.30;;
24859;SDS011;12936;52.006;4.350;2023-03-01T11:42:28;8.90;;;6.03;;
24859;SDS011;12936;52.006;4.350;2023-03-01T11:45:10;10.77;;;6.37;;
24859;SDS011;12936;52.006;4.350;2023-03-01T11:47:43;10.80;;;5.97;;
24859;SDS011;12936;52.006;4.350;2023-03-01T11:50:30;12.17;;;6.53;;
24859;SDS011;12936;52.006;4.350;2023-03-01T11:53:19;11.03;;;7.00;;
24859;SDS011;12936;52.006;4.350;2023-03-01T11:56:04;10.27;;;7.90;;
24859;SDS011;12936;52.006;4.350;2023-03-01T11:58:49;11.90;;;8.23;;
24859;SDS011;12936;52.006;4.350;2023-03-01T12:01:39;13.70;;;9.20;;
24859;SDS011;12936;52.006;4.350;2023-03-01T12:04:32;13.93;;;7.30;;
24859;SDS011;12936;52.006;4.350;2023-03-01T12:07:17;9.77;;;7.30;;
24859;SDS011;12936;52.006;4.350;2023-03-01T12:09:56;14.03;;;9.43;;
24859;SDS011;12936;52.006;4.350;2023-03-01T12:12:47;13.43;;;9.70;;
24859;SDS011;12936;52.006;4.350;2023-03-01T12:15:40;19.07;;;10.20;;
24859;SDS011;12936;52.006;4.350;2023-03-01T12:18:29;14.03;;;9.23;;
24859;SDS011;12936;52.006;4.350;2023-03-01T12:21:18;15.57;;;10.33;;
24859;SDS011;12936;52.006;4.350;2023-03-01T12:26:50;18.37;;;10.20;;
24859;SDS011;12936;52.006;4.350;2023-03-01T12:29:28;13.20;;;9.77;;
24859;SDS011;12936;52.006;4.350;2023-03-01T12:32:13;14.00;;;9.40;;
24859;SDS011;12936;52.006;4.350;2023-03-01T12:34:58;16.63;;;8.80;;
24859;SDS011;12936;52.006;4.350;2023-03-01T12:37:54;15.67;;;9.13;;
24859;SDS011;12936;52.006;4.350;2023-03-01T12:40:33;13.40;;;8.57;;
24859;SDS011;12936;52.006;4.350;2023-03-01T12:43:34;13.20;;;8.33;;
24859;SDS011;12936;52.006;4.350;2023-03-01T12:46:12;15.03;;;9.20;;
24859;SDS011;12936;52.006;4.350;2023-03-01T12:48:50;13.40;;;8.90;;
24859;SDS011;12936;52.006;4.350;2023-03-01T12:51:31;12.40;;;8.53;;
24859;SDS011;12936;52.006;4.350;2023-03-01T12:54:02;17.33;;;10.27;;
24859;SDS011;12936;52.006;4.350;2023-03-01T12:56:38;15.20;;;10.23;;
24859;SDS011;12936;52.006;4.350;2023-03-01T12:59:10;19.00;;;10.43;;
24859;SDS011;12936;52.006;4.350;2023-03-01T13:01:45;14.37;;;9.50;;
24859;SDS011;12936;52.006;4.350;2023-03-01T13:07:21;13.87;;;9.00;;
24859;SDS011;12936;52.006;4.350;2023-03-01T13:09:55;12.60;;;8.83;;
24859;SDS011;12936;52.006;4.350;2023-03-01T13:12:43;15.53;;;9.80;;
24859;SDS011;12936;52.006;4.350;2023-03-01T13:18:01;15.10;;;9.47;;
24859;SDS011;12936;52.006;4.350;2023-03-01T13:20:34;12.50;;;8.07;;
24859;SDS011;12936;52.006;4.350;2023-03-01T13:23:24;14.67;;;8.67;;
24859;SDS011;12936;52.006;4.350;2023-03-01T13:26:02;15.33;;;9.70;;
24859;SDS011;12936;52.006;4.350;2023-03-01T13:28:37;14.97;;;10.27;;
24859;SDS011;12936;52.006;4.350;2023-03-01T13:31:08;17.70;;;10.07;;
24859;SDS011;12936;52.006;4.350;2023-03-01T13:33:41;17.73;;;10.07;;
24859;SDS011;12936;52.006;4.350;2023-03-01T13:39:30;17.17;;;10.00;;
24859;SDS011;12936;52.006;4.350;2023-03-01T13:42:25;15.20;;;8.20;;
24859;SDS011;12936;52.006;4.350;2023-03-01T13:45:14;12.57;;;7.10;;
24859;SDS011;12936;52.006;4.350;2023-03-01T13:47:57;8.20;;;5.40;;
24859;SDS011;12936;52.006;4.350;2023-03-01T13:50:29;7.50;;;5.40;;
24859;SDS011;12936;52.006;4.350;2023-03-01T13:53:04;8.70;;;5.33;;
24859;SDS011;12936;52.006;4.350;2023-03-01T13:55:38;9.43;;;5.70;;
24859;SDS011;12936;52.006;4.350;2023-03-01T13:58:15;7.17;;;5.30;;
24859;SDS011;12936;52.006;4.350;2023-03-01T14:00:47;9.40;;;5.37;;
24859;SDS011;12936;52.006;4.350;2023-03-01T14:03:22;8.63;;;5.87;;
24859;SDS011;12936;52.006;4.350;2023-03-01T14:06:00;9.67;;;5.53;;
24859;SDS011;12936;52.006;4.350;2023-03-01T14:08:41;8.40;;;5.37;;
24859;SDS011;12936;52.006;4.350;2023-03-01T14:11:18;7.83;;;5.47;;
24859;SDS011;12936;52.006;4.350;2023-03-01T14:14:13;6.77;;;5.03;;
24859;SDS011;12936;52.006;4.350;2023-03-01T14:17:02;7.30;;;4.83;;
24859;SDS011;12936;52.006;4.350;2023-03-01T14:19:40;9.67;;;5.27;;
24859;SDS011;12936;52.006;4.350;2023-03-01T14:22:21;8.87;;;5.13;;
24859;SDS011;12936;52.006;4.350;2023-03-01T14:24:52;6.17;;;4.80;;
24859;SDS011;12936;52.006;4.350;2023-03-01T14:27:25;7.23;;;5.20;;
24859;SDS011;12936;52.006;4.350;2023-03-01T14:29:58;8.77;;;5.10;;
24859;SDS011;12936;52.006;4.350;2023-03-01T14:32:28;7.87;;;4.73;;
24859;SDS011;12936;52.006;4.350;2023-03-01T14:34:58;9.37;;;4.77;;
24859;SDS011;12936;52.006;4.350;2023-03-01T14:37:28;6.67;;;4.90;;
24859;SDS011;12936;52.006;4.350;2023-03-01T14:39:58;6.53;;;4.70;;
24859;SDS011;12936;52.006;4.350;2023-03-01T14:42:30;7.40;;;5.00;;
24859;SDS011;12936;52.006;4.350;2023-03-01T14:45:03;9.10;;;5.13;;
24859;SDS011;12936;52.006;4.350;2023-03-01T14:47:43;8.37;;;4.73;;
24859;SDS011;12936;52.006;4.350;2023-03-01T14:50:16;7.73;;;4.80;;
24859;SDS011;12936;52.006;4.350;2023-03-01T14:52:51;6.60;;;4.53;;
24859;SDS011;12936;52.006;4.350;2023-03-01T14:55:25;7.00;;;4.90;;
24859;SDS011;12936;52.006;4.350;2023-03-01T14:57:58;7.60;;;5.70;;
24859;SDS011;12936;52.006;4.350;2023-03-01T15:00:29;10.13;;;5.20;;
24859;SDS011;12936;52.006;4.350;2023-03-01T15:03:00;6.87;;;5.23;;
24859;SDS011;12936;52.006;4.350;2023-03-01T15:05:36;9.20;;;6.07;;
24859;SDS011;12936;52.006;4.350;2023-03-01T15:08:05;9.60;;;6.27;;
24859;SDS011;12936;52.006;4.350;2023-03-01T15:10:34;10.87;;;6.30;;
24859;SDS011;12936;52.006;4.350;2023-03-01T15:13:14;9.07;;;6.03;;
24859;SDS011;12936;52.006;4.350;2023-03-01T15:15:49;8.30;;;5.57;;
24859;SDS011;12936;52.006;4.350;2023-03-01T15:18:19;9.73;;;5.80;;
24859;SDS011;12936;52.006;4.350;2023-03-01T15:20:49;7.50;;;5.00;;
24859;SDS011;12936;52.006;4.350;2023-03-01T15:23:22;8.10;;;5.20;;
24859;SDS011;12936;52.006;4.350;2023-03-01T15:25:53;9.70;;;5.00;;
24859;SDS011;12936;52.006;4.350;2023-03-01T15:28:25;7.07;;;5.13;;
24859;SDS011;12936;52.006;4.350;2023-03-01T15:30:56;6.80;;;5.00;;
24859;SDS011;12936;52.006;4.350;2023-03-01T15:33:28;8.13;;;4.93;;
24859;SDS011;12936;52.006;4.350;2023-03-01T15:36:02;7.23;;;5.10;;
24859;SDS011;12936;52.006;4.350;2023-03-01T15:38:52;7.67;;;4.73;;
24859;SDS011;12936;52.006;4.350;2023-03-01T15:41:22;7.70;;;4.87;;